Terminal Aerodrome Forecast
Issued by NWS

Home | Current Version | Previous Version | Text Only | Print | Product List | Glossary On
Versions: 1 2 3 4 5 6 7 8 9 10 11 12 13 14 15 16 17 18 19 20 21 22 23 24 25 26 27 28 29 30 31 32
000
FTUS46 KLOX 241700
TAFLAX
TAF
KLAX 241735Z 2418/2524 00000KT P6SM FEW280
     FM250300 VRB03KT P6SM FEW200
     FM250900 VRB03KT P6SM BKN020
     FM251600 14006KT P6SM BKN020 OVC150
     FM252000 24012KT P6SM BKN025=

USA.gov is the U.S. government's official web portal to all federal, state and local government web resources and services.